Time;durP1;ratioP1;P1;durP2;ratioP2;P2;SDS_P1;SDS_P2;PMS_P1;PMS_P2;Temp;Humidity;BMP_temperature;BMP_pressure;BME280_temperature;BME280_humidity;BME280_pressure;Samples;Min_cycle;Max_cycle;Signal;HPM_P1;HPM_P2
2022/10/10 00:00:40;;;;;;;16.40;9.23;;;;;;;;;;5011145;28;20033;-76
2022/10/10 00:03:07;;;;;;;20.37;9.47;;;;;;;;;;5029626;28;20544;-76
2022/10/10 00:05:33;;;;;;;18.23;9.43;;;;;;;;;;5011817;28;20060;-76
2022/10/10 00:07:59;;;;;;;19.87;8.80;;;;;;;;;;5030171;28;20021;-76
2022/10/10 00:10:26;;;;;;;21.70;9.47;;;;;;;;;;5012660;28;20033;-76
2022/10/10 00:12:52;;;;;;;17.57;8.60;;;;;;;;;;5012174;28;20382;-76
2022/10/10 00:15:17;;;;;;;20.87;9.30;;;;;;;;;;5011183;28;20025;-76
2022/10/10 00:17:43;;;;;;;19.07;8.80;;;;;;;;;;5011156;28;20053;-76
2022/10/10 00:20:14;;;;;;;17.90;8.90;;;;;;;;;;5011285;28;20097;-76
2022/10/10 00:22:40;;;;;;;21.38;8.82;;;;;;;;;;5011972;28;20032;-76
2022/10/10 00:25:08;;;;;;;18.47;8.10;;;;;;;;;;4991855;28;20334;-76
2022/10/10 00:27:34;;;;;;;17.50;8.57;;;;;;;;;;5024502;28;20021;-76
2022/10/10 00:29:59;;;;;;;18.80;8.10;;;;;;;;;;4977069;28;20445;-75
2022/10/10 00:32:26;;;;;;;21.07;8.53;;;;;;;;;;5010028;28;20034;-76
2022/10/10 00:34:51;;;;;;;17.40;8.97;;;;;;;;;;5009618;28;20129;-76
2022/10/10 00:37:17;;;;;;;18.57;8.40;;;;;;;;;;4991634;28;20489;-76
2022/10/10 00:39:42;;;;;;;19.97;8.87;;;;;;;;;;4991442;28;20026;-76
2022/10/10 00:42:13;;;;;;;22.43;9.57;;;;;;;;;;4991367;28;20061;-76
2022/10/10 00:44:41;;;;;;;17.60;7.83;;;;;;;;;;5009036;28;20029;-76
2022/10/10 00:47:07;;;;;;;22.00;8.47;;;;;;;;;;4991598;28;20026;-76
2022/10/10 00:49:35;;;;;;;15.90;7.97;;;;;;;;;;5009152;28;20050;-76
2022/10/10 00:52:01;;;;;;;22.63;8.30;;;;;;;;;;5009391;28;20125;-76
2022/10/10 00:54:27;;;;;;;17.33;7.73;;;;;;;;;;5009168;28;20022;-76
2022/10/10 00:57:01;;;;;;;19.53;8.33;;;;;;;;;;5009174;28;20338;-76
2022/10/10 00:59:32;;;;;;;19.47;7.87;;;;;;;;;;4991314;28;20026;-75
2022/10/10 01:01:57;;;;;;;16.67;8.30;;;;;;;;;;4991467;28;20057;-76
2022/10/10 01:04:36;;;;;;;14.83;8.10;;;;;;;;;;4991550;28;20045;-77
2022/10/10 01:07:15;;;;;;;16.00;6.83;;;;;;;;;;4991894;28;20024;-76
2022/10/10 01:09:43;;;;;;;15.33;7.23;;;;;;;;;;5009811;28;20544;-76
2022/10/10 01:12:14;;;;;;;17.17;7.77;;;;;;;;;;4995348;28;20033;-76
2022/10/10 01:14:40;;;;;;;16.38;8.25;;;;;;;;;;4994989;28;20030;-76
2022/10/10 01:17:25;;;;;;;14.80;8.03;;;;;;;;;;5013046;28;20022;-74
2022/10/10 01:19:56;;;;;;;13.57;8.00;;;;;;;;;;4994643;28;20121;-75
2022/10/10 01:22:48;;;;;;;14.40;6.97;;;;;;;;;;4994873;28;20478;-75
2022/10/10 01:25:32;;;;;;;;;;;;;;;;;;4995427;28;20656;-76
2022/10/10 01:28:07;;;;;;;14.57;6.83;;;;;;;;;;4994470;28;20353;-76
2022/10/10 01:30:33;;;;;;;15.47;7.20;;;;;;;;;;4994073;28;20489;-76
2022/10/10 01:33:05;;;;;;;16.07;7.60;;;;;;;;;;4994566;28;20026;-76
2022/10/10 01:35:31;;;;;;;19.60;8.32;;;;;;;;;;4993946;28;20096;-76
2022/10/10 01:38:01;;;;;;;14.70;7.60;;;;;;;;;;5012641;28;20089;-77
2022/10/10 01:41:07;;;;;;;19.13;7.70;;;;;;;;;;4994591;28;20037;-77
2022/10/10 01:43:35;;;;;;;14.57;7.80;;;;;;;;;;4931571;29;20046;-76
2022/10/10 01:46:12;;;;;;;15.30;8.07;;;;;;;;;;4999114;28;20038;-77
2022/10/10 01:48:38;;;;;;;15.20;8.00;;;;;;;;;;5012015;28;20540;-75
2022/10/10 01:51:33;;;;;;;21.37;8.27;;;;;;;;;;5012013;28;20129;-75
2022/10/10 01:54:17;;;;;;;24.40;8.83;;;;;;;;;;4994258;28;20377;-75
2022/10/10 01:57:06;;;;;;;26.83;17.57;;;;;;;;;;4994135;28;20029;-76
2022/10/10 01:59:53;;;;;;;15.50;8.83;;;;;;;;;;4994328;28;20765;-76
2022/10/10 02:02:43;;;;;;;14.00;7.37;;;;;;;;;;4994536;28;20387;-76
2022/10/10 02:05:22;;;;;;;18.97;6.97;;;;;;;;;;4994227;28;20028;-76
2022/10/10 02:07:49;;;;;;;15.07;7.93;;;;;;;;;;4994188;28;20475;-75
2022/10/10 02:10:22;;;;;;;18.63;7.30;;;;;;;;;;4994381;28;20030;-75
2022/10/10 02:12:49;;;;;;;17.87;7.63;;;;;;;;;;4994482;28;20176;-75
2022/10/10 02:15:18;;;;;;;15.67;7.03;;;;;;;;;;4978424;28;20040;-76
2022/10/10 02:17:47;;;;;;;15.37;7.37;;;;;;;;;;4994180;28;20036;-75
2022/10/10 02:20:15;;;;;;;15.77;7.57;;;;;;;;;;5011503;28;20029;-75
2022/10/10 02:22:43;;;;;;;15.60;8.03;;;;;;;;;;5011362;28;20447;-74
2022/10/10 02:25:08;;;;;;;14.80;8.63;;;;;;;;;;5020411;28;20397;-77
2022/10/10 02:27:41;;;;;;;13.03;6.87;;;;;;;;;;5013569;28;20021;-74
2022/10/10 02:30:08;;;;;;;14.57;8.40;;;;;;;;;;5031871;28;20104;-76
2022/10/10 02:32:40;;;;;;;16.07;8.97;;;;;;;;;;5031822;28;20029;-77
2022/10/10 02:35:10;;;;;;;17.60;8.50;;;;;;;;;;5013996;28;20112;-75
2022/10/10 02:37:37;;;;;;;15.33;7.90;;;;;;;;;;5031497;28;20033;-76
2022/10/10 02:40:06;;;;;;;16.47;8.17;;;;;;;;;;5013584;28;20022;-75
2022/10/10 02:42:34;;;;;;;17.50;8.10;;;;;;;;;;5013465;28;20032;-75
2022/10/10 02:44:59;;;;;;;15.97;7.97;;;;;;;;;;5013487;28;20041;-75
2022/10/10 02:47:25;;;;;;;17.40;9.03;;;;;;;;;;4997826;28;20021;-75
2022/10/10 02:49:52;;;;;;;16.17;8.23;;;;;;;;;;5032830;28;20112;-77
2022/10/10 02:52:17;;;;;;;16.27;7.23;;;;;;;;;;5016091;28;20026;-77
2022/10/10 02:54:43;;;;;;;13.60;7.67;;;;;;;;;;5014880;28;20074;-77
2022/10/10 02:57:09;;;;;;;16.07;7.23;;;;;;;;;;5052212;28;20021;-77
2022/10/10 02:59:35;;;;;;;15.50;6.57;;;;;;;;;;5032386;28;20087;-78
2022/10/10 03:02:01;;;;;;;15.00;6.60;;;;;;;;;;5050167;28;20044;-78
2022/10/10 03:04:27;;;;;;;16.10;5.97;;;;;;;;;;5050753;28;20104;-78
2022/10/10 03:06:53;;;;;;;12.07;6.10;;;;;;;;;;5032312;28;20027;-78
2022/10/10 03:09:18;;;;;;;9.50;5.90;;;;;;;;;;5015851;28;20371;-77
2022/10/10 03:11:44;;;;;;;14.80;6.03;;;;;;;;;;5030266;28;20036;-77
2022/10/10 03:14:10;;;;;;;13.53;6.40;;;;;;;;;;5030541;28;20096;-77
2022/10/10 03:16:35;;;;;;;13.77;6.20;;;;;;;;;;5030530;28;20036;-77
2022/10/10 03:19:02;;;;;;;10.37;6.20;;;;;;;;;;5030196;28;20048;-77
2022/10/10 03:21:27;;;;;;;14.60;6.70;;;;;;;;;;5012240;28;20022;-78
2022/10/10 03:23:53;;;;;;;13.73;5.90;;;;;;;;;;5012060;28;20082;-77
2022/10/10 03:26:19;;;;;;;11.67;5.80;;;;;;;;;;4994148;28;20446;-77
2022/10/10 03:28:44;;;;;;;15.00;6.67;;;;;;;;;;4992172;28;20056;-78
2022/10/10 03:31:10;;;;;;;11.97;6.03;;;;;;;;;;4992406;28;20036;-77
2022/10/10 03:33:35;;;;;;;10.10;5.40;;;;;;;;;;4992160;28;20021;-77
2022/10/10 03:36:01;;;;;;;8.93;5.60;;;;;;;;;;5010342;28;20562;-76
2022/10/10 03:38:27;;;;;;;11.53;5.80;;;;;;;;;;4992077;28;20034;-77
2022/10/10 03:40:52;;;;;;;9.00;5.33;;;;;;;;;;4992108;28;20083;-77
2022/10/10 03:43:18;;;;;;;12.40;5.93;;;;;;;;;;5010165;28;20032;-77
2022/10/10 03:45:46;;;;;;;9.70;5.97;;;;;;;;;;4991908;28;20037;-77
2022/10/10 03:48:12;;;;;;;10.77;5.23;;;;;;;;;;5010103;28;20034;-77
2022/10/10 03:50:38;;;;;;;12.67;5.63;;;;;;;;;;5009491;28;20077;-77
2022/10/10 03:53:04;;;;;;;10.53;5.90;;;;;;;;;;4992272;28;20584;-77
2022/10/10 03:55:29;;;;;;;10.00;6.07;;;;;;;;;;5009997;28;20022;-77
2022/10/10 03:57:54;;;;;;;11.47;5.93;;;;;;;;;;4991650;28;20057;-76
2022/10/10 04:00:20;;;;;;;12.47;6.33;;;;;;;;;;5010094;28;20546;-75
2022/10/10 04:02:45;;;;;;;9.37;5.70;;;;;;;;;;4991938;28;20100;-76
2022/10/10 04:05:11;;;;;;;16.23;6.60;;;;;;;;;;5009736;28;20065;-77
2022/10/10 04:07:37;;;;;;;8.80;5.77;;;;;;;;;;5009388;28;20072;-78
2022/10/10 04:10:03;;;;;;;11.30;5.90;;;;;;;;;;4992073;28;20025;-77
2022/10/10 04:12:28;;;;;;;12.53;6.57;;;;;;;;;;4993484;28;20022;-78
2022/10/10 04:14:54;;;;;;;8.50;5.30;;;;;;;;;;4995875;28;20061;-78
2022/10/10 04:17:19;;;;;;;16.60;6.87;;;;;;;;;;5009599;28;20446;-78
2022/10/10 04:19:45;;;;;;;11.00;5.57;;;;;;;;;;5009633;28;20037;-77
2022/10/10 04:22:11;;;;;;;14.57;7.40;;;;;;;;;;4991934;28;20389;-77
2022/10/10 04:24:36;;;;;;;17.53;6.73;;;;;;;;;;4991566;28;20041;-77
2022/10/10 04:27:02;;;;;;;13.40;5.90;;;;;;;;;;5009419;28;20030;-77
2022/10/10 04:29:27;;;;;;;10.30;5.63;;;;;;;;;;4991915;28;20117;-78
2022/10/10 04:31:53;;;;;;;12.17;6.07;;;;;;;;;;5009070;28;20034;-77
2022/10/10 04:34:19;;;;;;;10.00;5.80;;;;;;;;;;4991274;28;20049;-78
2022/10/10 04:36:44;;;;;;;9.17;5.63;;;;;;;;;;4991086;28;20613;-77
2022/10/10 04:39:10;;;;;;;12.37;5.83;;;;;;;;;;4991474;28;20106;-77
2022/10/10 04:41:35;;;;;;;13.40;5.83;;;;;;;;;;4991799;28;20116;-78
2022/10/10 04:44:01;;;;;;;10.03;5.60;;;;;;;;;;4992050;28;20041;-78
2022/10/10 04:46:26;;;;;;;10.67;5.50;;;;;;;;;;4995819;28;20446;-78
2022/10/10 04:48:51;;;;;;;12.83;5.70;;;;;;;;;;5014343;28;20061;-77
2022/10/10 04:51:17;;;;;;;13.33;6.43;;;;;;;;;;4995602;28;20045;-76
2022/10/10 04:53:43;;;;;;;10.13;5.87;;;;;;;;;;4995322;28;20036;-77
2022/10/10 04:56:08;;;;;;;15.30;5.53;;;;;;;;;;4995672;28;20034;-79
2022/10/10 04:58:34;;;;;;;12.37;6.30;;;;;;;;;;5013022;28;20030;-78
2022/10/10 05:01:00;;;;;;;16.63;5.60;;;;;;;;;;4994772;28;20037;-78
2022/10/10 05:03:25;;;;;;;15.27;7.43;;;;;;;;;;4994776;28;20095;-78
2022/10/10 05:05:51;;;;;;;8.27;5.80;;;;;;;;;;4995342;28;20026;-77
2022/10/10 05:08:17;;;;;;;12.80;5.80;;;;;;;;;;5012905;28;20044;-77
2022/10/10 05:10:45;;;;;;;10.23;6.17;;;;;;;;;;5022127;28;20021;-76
2022/10/10 05:13:13;;;;;;;10.73;6.10;;;;;;;;;;5021946;28;20026;-79
2022/10/10 05:15:39;;;;;;;17.40;6.20;;;;;;;;;;5011051;28;20116;-78
2022/10/10 05:18:05;;;;;;;12.77;6.37;;;;;;;;;;5030548;28;20112;-79
2022/10/10 05:20:31;;;;;;;14.73;7.27;;;;;;;;;;5030049;28;20025;-78
2022/10/10 05:22:57;;;;;;;13.97;7.73;;;;;;;;;;4999293;28;20030;-76
2022/10/10 05:25:24;;;;;;;11.20;6.00;;;;;;;;;;5020802;28;20390;-75
2022/10/10 05:27:50;;;;;;;12.93;5.73;;;;;;;;;;5011199;28;20101;-80
2022/10/10 05:30:15;;;;;;;12.27;5.53;;;;;;;;;;5013260;28;20468;-77
2022/10/10 05:32:41;;;;;;;13.23;6.50;;;;;;;;;;5009590;28;20025;-75
2022/10/10 05:35:07;;;;;;;13.17;7.03;;;;;;;;;;5028366;28;20037;-75
2022/10/10 05:37:34;;;;;;;12.47;6.60;;;;;;;;;;5023625;28;20036;-76
2022/10/10 05:39:59;;;;;;;15.90;6.57;;;;;;;;;;5005617;28;20448;-77
2022/10/10 05:42:25;;;;;;;10.93;5.47;;;;;;;;;;5017376;28;20034;-73
2022/10/10 05:44:51;;;;;;;10.67;6.30;;;;;;;;;;4998596;28;20438;-75
2022/10/10 05:47:16;;;;;;;14.50;6.13;;;;;;;;;;5006440;28;20022;-77
2022/10/10 05:49:42;;;;;;;13.80;7.17;;;;;;;;;;5016326;28;20128;-75
2022/10/10 05:52:08;;;;;;;16.87;6.90;;;;;;;;;;5008980;28;20077;-74
2022/10/10 05:54:33;;;;;;;13.10;5.87;;;;;;;;;;4994621;28;20025;-74
2022/10/10 05:57:00;;;;;;;10.00;5.90;;;;;;;;;;5011520;28;20040;-76
2022/10/10 05:59:29;;;;;;;17.80;7.10;;;;;;;;;;4999601;28;20032;-75
2022/10/10 06:01:56;;;;;;;11.83;5.87;;;;;;;;;;4992390;28;20025;-74
2022/10/10 06:04:22;;;;;;;12.30;6.23;;;;;;;;;;4996529;28;20033;-76
2022/10/10 06:06:48;;;;;;;14.73;6.00;;;;;;;;;;5012768;28;20041;-77
2022/10/10 06:09:14;;;;;;;10.97;6.40;;;;;;;;;;5016747;28;20090;-79
2022/10/10 06:11:41;;;;;;;14.93;7.27;;;;;;;;;;5001125;28;20044;-75
2022/10/10 06:14:09;;;;;;;11.90;6.37;;;;;;;;;;4994598;28;20061;-75
2022/10/10 06:16:35;;;;;;;15.90;7.17;;;;;;;;;;5010197;28;20475;-75
2022/10/10 06:19:01;;;;;;;12.13;6.27;;;;;;;;;;4993689;28;20099;-77
2022/10/10 06:21:27;;;;;;;13.10;6.57;;;;;;;;;;5010388;28;20029;-78
2022/10/10 06:23:53;;;;;;;12.67;7.03;;;;;;;;;;4991920;28;20148;-76
2022/10/10 06:26:18;;;;;;;16.83;7.30;;;;;;;;;;4994513;28;20087;-77
2022/10/10 06:28:44;;;;;;;13.73;7.20;;;;;;;;;;5007995;28;20022;-81
2022/10/10 06:31:11;;;;;;;8.90;6.20;;;;;;;;;;5012840;28;20029;-78
2022/10/10 06:33:38;;;;;;;11.60;5.80;;;;;;;;;;4995253;28;20188;-76
2022/10/10 06:36:07;;;;;;;13.83;6.80;;;;;;;;;;4991364;28;20038;-78
2022/10/10 06:38:38;;;;;;;15.83;7.03;;;;;;;;;;4995099;28;20036;-76
2022/10/10 06:41:04;;;;;;;11.90;6.03;;;;;;;;;;4995222;28;20026;-76
2022/10/10 06:43:31;;;;;;;11.37;6.37;;;;;;;;;;5011443;28;20067;-76
2022/10/10 06:45:57;;;;;;;12.37;6.57;;;;;;;;;;4994646;28;20088;-76
2022/10/10 06:48:23;;;;;;;23.30;6.10;;;;;;;;;;5011352;28;20511;-75
2022/10/10 06:51:06;;;;;;;12.47;6.27;;;;;;;;;;5014098;28;20092;-76
2022/10/10 06:53:33;;;;;;;12.47;6.10;;;;;;;;;;4995136;28;20065;-78
2022/10/10 06:56:00;;;;;;;13.60;7.27;;;;;;;;;;5015280;28;20131;-76
2022/10/10 06:58:27;;;;;;;11.20;6.50;;;;;;;;;;4994281;28;20461;-76
2022/10/10 07:00:56;;;;;;;10.77;6.87;;;;;;;;;;5009000;28;20128;-79
2022/10/10 07:03:22;;;;;;;16.30;6.20;;;;;;;;;;4986896;28;20849;-78
2022/10/10 07:05:54;;;;;;;10.37;5.90;;;;;;;;;;4991194;28;20042;-78
2022/10/10 07:08:21;;;;;;;13.13;5.80;;;;;;;;;;4965852;28;20114;-76
2022/10/10 07:10:47;;;;;;;14.77;5.60;;;;;;;;;;5006886;28;20057;-76
2022/10/10 07:13:14;;;;;;;9.67;5.97;;;;;;;;;;5003048;28;20152;-74
2022/10/10 07:15:43;;;;;;;12.45;5.78;;;;;;;;;;4975603;28;20053;-75
2022/10/10 07:18:09;;;;;;;10.20;5.43;;;;;;;;;;5010974;28;20474;-77
2022/10/10 07:20:35;;;;;;;11.87;6.70;;;;;;;;;;4983005;28;20041;-76
2022/10/10 07:23:01;;;;;;;9.73;5.47;;;;;;;;;;5006246;28;20033;-76
2022/10/10 07:25:26;;;;;;;20.35;9.40;;;;;;;;;;4988322;28;20029;-74
2022/10/10 07:27:59;;;;;;;14.67;6.00;;;;;;;;;;4983827;28;20120;-75
2022/10/10 07:30:25;;;;;;;13.27;5.87;;;;;;;;;;5005796;28;20041;-78
2022/10/10 07:32:54;;;;;;;13.40;6.20;;;;;;;;;;4969703;28;20303;-75
2022/10/10 07:35:21;;;;;;;15.32;6.45;;;;;;;;;;5012550;28;20038;-76
2022/10/10 07:37:47;;;;;;;13.52;6.25;;;;;;;;;;4992252;28;20568;-77
2022/10/10 07:40:13;;;;;;;21.38;7.78;;;;;;;;;;5008615;28;20030;-77
2022/10/10 07:42:39;;;;;;;14.95;6.63;;;;;;;;;;4963707;28;20132;-77
2022/10/10 07:45:06;;;;;;;12.68;6.18;;;;;;;;;;5009007;28;20057;-78
2022/10/10 07:47:31;;;;;;;14.20;6.30;;;;;;;;;;4991962;28;20092;-75
2022/10/10 07:49:57;;;;;;;10.57;6.65;;;;;;;;;;5006337;28;20490;-76
2022/10/10 07:52:22;;;;;;;11.50;6.40;;;;;;;;;;5007466;28;20037;-78
2022/10/10 07:54:48;;;;;;;17.80;7.57;;;;;;;;;;4991479;28;20501;-76
2022/10/10 07:57:13;;;;;;;8.45;6.13;;;;;;;;;;5008695;28;20056;-77
2022/10/10 07:59:39;;;;;;;11.55;6.40;;;;;;;;;;4972981;28;20030;-74
2022/10/10 08:02:05;;;;;;;11.15;7.30;;;;;;;;;;4985193;28;20061;-75
2022/10/10 08:04:31;;;;;;;19.52;7.13;;;;;;;;;;4989761;28;20037;-76
2022/10/10 08:06:56;;;;;;;14.73;6.85;;;;;;;;;;4996425;28;20040;-75
2022/10/10 08:09:23;;;;;;;14.93;7.55;;;;;;;;;;4987844;28;21513;-79
2022/10/10 08:11:48;;;;;;;13.95;6.40;;;;;;;;;;4973350;28;20095;-79
2022/10/10 08:14:15;;;;;;;14.27;6.10;;;;;;;;;;5008270;28;20034;-80
2022/10/10 08:16:41;;;;;;;9.30;6.50;;;;;;;;;;4999055;28;20532;-80
2022/10/10 08:19:07;;;;;;;15.30;6.88;;;;;;;;;;5011921;28;20064;-78
2022/10/10 08:21:34;;;;;;;16.92;6.43;;;;;;;;;;5005961;28;20753;-78
2022/10/10 08:24:00;;;;;;;9.55;6.40;;;;;;;;;;5007424;28;20886;-77
2022/10/10 08:26:26;;;;;;;10.02;5.78;;;;;;;;;;5003785;28;20029;-77
2022/10/10 08:28:52;;;;;;;13.05;6.68;;;;;;;;;;4986345;28;20030;-74
2022/10/10 08:31:22;;;;;;;11.50;6.85;;;;;;;;;;5000406;28;20717;-75
2022/10/10 08:33:50;;;;;;;15.40;7.80;;;;;;;;;;4989466;28;20429;-79
2022/10/10 08:36:19;;;;;;;13.40;7.50;;;;;;;;;;4988808;28;20095;-77
2022/10/10 08:38:46;;;;;;;14.30;6.22;;;;;;;;;;4986740;28;20030;-75
2022/10/10 08:41:38;;;;;;;12.27;7.03;;;;;;;;;;4985232;28;20065;-76
2022/10/10 08:44:18;;;;;;;9.68;6.60;;;;;;;;;;5003995;28;20030;-76
2022/10/10 08:47:17;;;;;;;19.60;7.00;;;;;;;;;;5008332;28;20037;-76
2022/10/10 08:50:01;;;;;;;14.18;6.68;;;;;;;;;;4985083;28;20477;-77
2022/10/10 08:52:37;;;;;;;13.60;5.95;;;;;;;;;;4985970;28;20091;-77
2022/10/10 08:55:06;;;;;;;9.32;5.72;;;;;;;;;;4989212;28;20116;-79
2022/10/10 08:57:48;;;;;;;10.00;6.47;;;;;;;;;;4989761;28;20112;-76
2022/10/10 09:00:17;;;;;;;10.57;6.40;;;;;;;;;;4984551;28;20541;-79
2022/10/10 09:02:48;;;;;;;13.80;7.93;;;;;;;;;;5000294;28;20076;-76
2022/10/10 09:05:27;;;;;;;14.15;6.88;;;;;;;;;;4985957;28;20187;-75
2022/10/10 09:08:26;;;;;;;17.92;6.30;;;;;;;;;;5007966;28;20030;-76
2022/10/10 09:11:17;;;;;;;12.13;6.43;;;;;;;;;;5006502;28;20046;-78
2022/10/10 09:13:57;;;;;;;12.50;5.43;;;;;;;;;;4996571;28;20018;-77
2022/10/10 09:16:37;;;;;;;12.70;6.88;;;;;;;;;;4990700;28;20034;-77
2022/10/10 09:19:31;;;;;;;19.23;6.25;;;;;;;;;;5007198;28;20087;-78
2022/10/10 09:22:02;;;;;;;11.27;5.70;;;;;;;;;;4986757;28;20040;-76
2022/10/10 09:24:34;;;;;;;12.60;6.67;;;;;;;;;;4987588;28;20051;-77
2022/10/10 09:27:08;;;;;;;13.00;6.75;;;;;;;;;;5006868;28;20135;-78
2022/10/10 09:29:43;;;;;;;12.48;6.30;;;;;;;;;;4988988;28;20037;-79
2022/10/10 09:32:10;;;;;;;14.23;7.28;;;;;;;;;;4990305;28;20037;-78
2022/10/10 09:34:57;;;;;;;10.95;6.10;;;;;;;;;;4999217;28;20654;-80
2022/10/10 09:37:36;;;;;;;16.02;6.82;;;;;;;;;;5010182;28;20030;-74
2022/10/10 09:40:34;;;;;;;14.05;6.97;;;;;;;;;;4991996;28;20039;-79
2022/10/10 09:43:16;;;;;;;13.30;7.10;;;;;;;;;;4985885;28;20115;-78
2022/10/10 09:45:54;;;;;;;12.75;7.15;;;;;;;;;;4977188;28;20021;-75
2022/10/10 09:48:26;;;;;;;9.25;6.03;;;;;;;;;;5010099;28;20029;-78
2022/10/10 09:50:51;;;;;;;8.30;6.03;;;;;;;;;;4991276;28;20053;-79
2022/10/10 09:53:17;;;;;;;12.02;8.10;;;;;;;;;;4990103;28;20382;-78
2022/10/10 09:55:45;;;;;;;13.45;7.47;;;;;;;;;;4996544;28;20373;-79
2022/10/10 09:58:37;;;;;;;9.43;6.00;;;;;;;;;;4992501;28;20025;-77
2022/10/10 10:01:13;;;;;;;15.30;7.25;;;;;;;;;;5008953;28;20111;-76
2022/10/10 10:03:41;;;;;;;13.48;6.90;;;;;;;;;;5007457;28;20096;-77
2022/10/10 10:06:14;;;;;;;10.60;6.20;;;;;;;;;;4999428;28;20513;-77
2022/10/10 10:08:42;;;;;;;14.38;6.82;;;;;;;;;;4975555;28;20029;-78
2022/10/10 10:11:33;;;;;;;11.82;7.07;;;;;;;;;;4993200;28;20035;-77
2022/10/10 10:14:01;;;;;;;14.18;8.38;;;;;;;;;;4986085;28;20080;-79
2022/10/10 10:16:45;;;;;;;16.83;7.38;;;;;;;;;;5010306;28;20423;-79
2022/10/10 10:19:34;;;;;;;12.60;6.68;;;;;;;;;;5011247;28;20127;-79
2022/10/10 10:22:01;;;;;;;13.63;6.65;;;;;;;;;;4987567;28;20056;-78
2022/10/10 10:24:35;;;;;;;13.55;6.60;;;;;;;;;;4990316;28;20033;-82
2022/10/10 10:27:28;;;;;;;13.48;6.60;;;;;;;;;;4993593;28;20305;-77
2022/10/10 10:29:57;;;;;;;14.98;7.47;;;;;;;;;;4987178;28;20049;-78
2022/10/10 10:32:42;;;;;;;17.48;8.13;;;;;;;;;;4991655;28;20136;-78
2022/10/10 10:35:20;;;;;;;11.88;6.78;;;;;;;;;;5011080;28;20030;-79
2022/10/10 10:38:22;;;;;;;13.90;7.18;;;;;;;;;;4991784;28;20312;-78
2022/10/10 10:40:57;;;;;;;12.30;6.82;;;;;;;;;;4987516;28;20140;-78
2022/10/10 10:44:00;;;;;;;12.13;7.43;;;;;;;;;;5006493;28;20435;-80
2022/10/10 10:46:55;;;;;;;17.05;6.68;;;;;;;;;;4985130;28;20044;-77
2022/10/10 10:49:42;;;;;;;10.38;6.07;;;;;;;;;;4888921;29;20194;-76
2022/10/10 10:52:45;;;;;;;11.98;7.15;;;;;;;;;;4849596;29;20060;-79
2022/10/10 10:55:26;;;;;;;10.43;5.22;;;;;;;;;;4992956;28;20026;-78
2022/10/10 10:58:00;;;;;;;13.25;6.78;;;;;;;;;;4994487;28;20082;-77
2022/10/10 11:00:30;;;;;;;12.20;6.20;;;;;;;;;;5007888;28;20065;-79
2022/10/10 11:03:23;;;;;;;14.85;7.68;;;;;;;;;;5006500;28;21197;-78
2022/10/10 11:05:54;;;;;;;13.88;6.28;;;;;;;;;;5007436;28;20025;-78
2022/10/10 11:08:41;;;;;;;7.97;5.68;;;;;;;;;;4990634;28;20026;-78
2022/10/10 11:11:13;;;;;;;13.55;6.25;;;;;;;;;;4989759;28;20121;-76
2022/10/10 11:13:54;;;;;;;10.57;5.43;;;;;;;;;;4987211;28;20482;-76
2022/10/10 11:16:45;;;;;;;12.98;6.18;;;;;;;;;;5011794;28;20068;-78
2022/10/10 11:19:26;;;;;;;9.00;5.28;;;;;;;;;;5005035;28;20526;-75
2022/10/10 11:21:59;;;;;;;9.93;4.65;;;;;;;;;;4989667;28;20878;-75
2022/10/10 11:24:36;;;;;;;9.88;5.22;;;;;;;;;;4993421;28;20037;-78
2022/10/10 11:27:12;;;;;;;12.13;5.05;;;;;;;;;;5011397;28;20044;-80
2022/10/10 11:29:52;;;;;;;8.75;4.60;;;;;;;;;;4989621;28;20335;-76
2022/10/10 11:33:01;;;;;;;12.60;5.03;;;;;;;;;;4986301;28;20045;-75
2022/10/10 11:35:34;;;;;;;7.53;4.30;;;;;;;;;;4930145;28;20058;-75
2022/10/10 11:38:28;;;;;;;9.95;4.32;;;;;;;;;;4927230;29;20038;-77
2022/10/10 11:41:12;;;;;;;12.63;4.80;;;;;;;;;;4915384;29;20411;-76
2022/10/10 11:44:04;;;;;;;13.15;4.60;;;;;;;;;;4924065;29;20091;-78
2022/10/10 11:46:44;;;;;;;7.28;4.22;;;;;;;;;;4952936;28;20065;-76
2022/10/10 11:49:12;;;;;;;9.20;4.18;;;;;;;;;;4986040;28;20568;-77
2022/10/10 11:52:02;;;;;;;7.68;4.30;;;;;;;;;;4985816;28;20060;-74
2022/10/10 11:55:33;;;;;;;10.82;5.25;;;;;;;;;;4990004;28;20553;-73
2022/10/10 11:58:04;;;;;;;7.45;4.53;;;;;;;;;;4872632;29;20044;-77
2022/10/10 12:00:38;;;;;;;11.73;4.68;;;;;;;;;;4927841;29;20445;-74
2022/10/10 12:03:07;;;;;;;12.75;5.07;;;;;;;;;;4965198;28;20043;-73
2022/10/10 12:06:02;;;;;;;6.45;4.32;;;;;;;;;;5009103;28;20121;-81
2022/10/10 12:08:36;;;;;;;7.05;4.10;;;;;;;;;;4988699;28;20029;-75
2022/10/10 12:11:20;;;;;;;7.68;4.30;;;;;;;;;;5006230;28;20025;-77
2022/10/10 12:13:51;;;;;;;11.88;4.97;;;;;;;;;;4989302;28;20421;-79
2022/10/10 12:16:20;;;;;;;6.45;4.85;;;;;;;;;;4989503;28;20125;-78
2022/10/10 12:18:49;;;;;;;11.50;4.85;;;;;;;;;;4989632;28;20391;-81
2022/10/10 12:21:17;;;;;;;7.80;4.00;;;;;;;;;;5005579;28;20101;-77
2022/10/10 12:23:49;;;;;;;12.85;4.70;;;;;;;;;;5001613;28;20033;-78
2022/10/10 12:26:25;;;;;;;19.95;6.25;;;;;;;;;;4986134;28;20132;-75
2022/10/10 12:29:05;;;;;;;10.80;4.88;;;;;;;;;;4996521;28;20041;-77
2022/10/10 12:31:38;;;;;;;7.93;4.03;;;;;;;;;;4983903;28;20518;-77
2022/10/10 12:34:39;;;;;;;12.60;4.60;;;;;;;;;;4983678;28;20352;-78
2022/10/10 12:37:20;;;;;;;7.43;4.43;;;;;;;;;;4987160;28;20033;-78
2022/10/10 12:40:04;;;;;;;;;;;;;;;;;;4993142;28;20056;-80
2022/10/10 12:42:37;;;;;;;6.00;3.95;;;;;;;;;;4982601;28;19921;-75
2022/10/10 12:45:28;;;;;;;9.52;4.55;;;;;;;;;;4985507;28;20053;-74
2022/10/10 12:48:03;;;;;;;7.55;4.53;;;;;;;;;;5004576;28;20081;-76
2022/10/10 12:50:35;;;;;;;9.07;3.90;;;;;;;;;;4983320;28;20054;-76
2022/10/10 12:53:05;;;;;;;8.52;4.38;;;;;;;;;;4999762;28;20054;-79
2022/10/10 12:55:52;;;;;;;9.63;4.15;;;;;;;;;;5006077;28;20045;-79
2022/10/10 12:58:27;;;;;;;6.13;4.15;;;;;;;;;;4986672;28;20299;-80
2022/10/10 13:00:54;;;;;;;7.20;3.90;;;;;;;;;;4987521;28;20068;-80
2022/10/10 13:03:43;;;;;;;8.88;4.28;;;;;;;;;;5006898;28;20455;-79
2022/10/10 13:06:16;;;;;;;6.95;3.72;;;;;;;;;;5011069;28;20098;-77
2022/10/10 13:08:42;;;;;;;8.00;3.88;;;;;;;;;;5010864;28;20025;-81
2022/10/10 13:11:13;;;;;;;16.25;4.00;;;;;;;;;;5013097;28;20136;-78
2022/10/10 13:13:47;;;;;;;14.00;5.50;;;;;;;;;;5007750;28;20108;-77
2022/10/10 13:16:16;;;;;;;10.98;4.43;;;;;;;;;;5014677;28;20110;-76
2022/10/10 13:18:56;;;;;;;14.73;3.78;;;;;;;;;;4994433;28;20472;-77
2022/10/10 13:21:27;;;;;;;10.48;3.78;;;;;;;;;;5012221;28;20025;-76
2022/10/10 13:23:57;;;;;;;7.25;3.72;;;;;;;;;;5019176;28;20029;-77
2022/10/10 13:26:30;;;;;;;10.68;4.40;;;;;;;;;;4999850;28;20021;-77
2022/10/10 13:29:00;;;;;;;9.52;5.00;;;;;;;;;;5015306;28;20028;-76
2022/10/10 13:31:26;;;;;;;10.35;4.07;;;;;;;;;;4992392;28;20140;-78
2022/10/10 13:34:05;;;;;;;5.82;3.83;;;;;;;;;;5018519;28;20048;-72
2022/10/10 13:36:33;;;;;;;10.00;3.67;;;;;;;;;;5003128;28;20184;-78
2022/10/10 13:39:00;;;;;;;6.57;3.58;;;;;;;;;;4997941;28;20025;-76
2022/10/10 13:41:26;;;;;;;7.05;3.25;;;;;;;;;;5017303;28;20242;-78
2022/10/10 13:43:52;;;;;;;7.93;3.08;;;;;;;;;;4997263;28;20077;-78
2022/10/10 13:46:27;;;;;;;9.20;3.88;;;;;;;;;;5026492;28;20052;-76
2022/10/10 13:48:53;;;;;;;7.82;4.50;;;;;;;;;;5004848;28;20033;-76
2022/10/10 13:51:19;;;;;;;14.00;4.25;;;;;;;;;;4997998;28;20111;-75
2022/10/10 13:53:47;;;;;;;13.73;4.05;;;;;;;;;;5019375;28;20584;-76
2022/10/10 13:56:25;;;;;;;15.60;4.63;;;;;;;;;;5002653;28;20045;-77
2022/10/10 13:58:59;;;;;;;12.15;3.60;;;;;;;;;;5021895;28;20060;-76
2022/10/10 14:01:28;;;;;;;8.38;3.70;;;;;;;;;;5021446;28;20029;-77
2022/10/10 14:04:16;;;;;;;7.68;3.83;;;;;;;;;;4994821;28;20041;-77
2022/10/10 14:06:51;;;;;;;14.45;4.30;;;;;;;;;;5015822;28;20033;-77
2022/10/10 14:09:40;;;;;;;7.25;4.00;;;;;;;;;;5013198;28;20021;-79
2022/10/10 14:12:14;;;;;;;11.38;4.93;;;;;;;;;;5015718;28;20041;-78
2022/10/10 14:14:47;;;;;;;9.43;3.63;;;;;;;;;;5003215;28;20124;-78
2022/10/10 14:17:15;;;;;;;9.82;4.00;;;;;;;;;;5000261;28;20033;-83
2022/10/10 14:19:43;;;;;;;9.80;4.05;;;;;;;;;;4999854;28;20489;-79
2022/10/10 14:22:11;;;;;;;8.63;3.83;;;;;;;;;;5016310;28;20087;-80
2022/10/10 14:24:37;;;;;;;13.60;4.32;;;;;;;;;;5002195;28;20490;-79
2022/10/10 14:27:26;;;;;;;8.27;3.75;;;;;;;;;;5002591;28;20025;-80
2022/10/10 14:29:54;;;;;;;8.65;4.15;;;;;;;;;;4997963;28;20033;-82
2022/10/10 14:32:20;;;;;;;8.30;4.97;;;;;;;;;;4999704;28;20034;-80
2022/10/10 14:34:46;;;;;;;7.60;4.13;;;;;;;;;;5014262;28;20037;-79
2022/10/10 14:37:32;;;;;;;6.32;3.92;;;;;;;;;;5019837;28;20051;-76
2022/10/10 14:39:57;;;;;;;10.18;4.13;;;;;;;;;;4997133;28;20457;-76
2022/10/10 14:42:26;;;;;;;9.35;3.97;;;;;;;;;;5014954;28;20037;-81
2022/10/10 14:44:51;;;;;;;7.30;3.80;;;;;;;;;;4999615;28;20053;-79
2022/10/10 14:47:23;;;;;;;21.23;9.98;;;;;;;;;;5012799;28;20037;-79
2022/10/10 14:49:48;;;;;;;13.55;4.15;;;;;;;;;;4986243;28;20581;-80
2022/10/10 14:52:14;;;;;;;6.57;3.97;;;;;;;;;;5003127;28;20022;-77
2022/10/10 14:54:40;;;;;;;12.95;4.82;;;;;;;;;;4995389;28;20040;-79
2022/10/10 14:57:06;;;;;;;13.90;5.03;;;;;;;;;;5010681;28;20034;-78
2022/10/10 14:59:34;;;;;;;14.07;3.83;;;;;;;;;;4994787;28;20135;-79